Time;durP1;ratioP1;P1;durP2;ratioP2;P2;SDS_P1;SDS_P2;PMS_P1;PMS_P2;Temp;Humidity;BMP_temperature;BMP_pressure;BME280_temperature;BME280_humidity;BME280_pressure;Samples;Min_cycle;Max_cycle;Signal;HPM_P1;HPM_P2
2023/02/09 07:50:05;;;;;;;10.10;3.43;;;-6.30;99.90;;;;;;5132754;27;20274;-76
2023/02/09 07:53:29;;;;;;;8.20;4.07;;;-6.20;99.90;;;;;;5132057;27;20284;-77
2023/02/09 07:55:55;;;;;;;5.57;3.60;;;-6.10;99.90;;;;;;5132334;27;20407;-77
2023/02/09 07:58:21;;;;;;;4.63;3.10;;;-6.00;99.90;;;;;;5130766;28;20182;-77
2023/02/09 08:03:39;;;;;;;6.17;3.00;;;-5.60;99.90;;;;;;5111363;27;20544;-77
2023/02/09 08:13:52;;;;;;;4.27;2.73;;;-3.90;99.90;;;;;;5131846;27;20297;-77
2023/02/09 08:17:54;;;;;;;7.97;2.30;;;-3.00;99.90;;;;;;5133796;27;20282;-78
2023/02/09 08:20:24;;;;;;;5.07;2.63;;;-2.20;99.90;;;;;;5113486;28;20764;-76
2023/02/09 08:22:51;;;;;;;6.43;3.53;;;-1.70;99.90;;;;;;5113959;28;20409;-78
2023/02/09 08:25:21;;;;;;;5.97;3.27;;;-1.60;99.90;;;;;;5135371;27;20771;-78
2023/02/09 08:27:47;;;;;;;4.97;2.43;;;-0.90;99.90;;;;;;5134000;27;20473;-78
2023/02/09 08:30:15;;;;;;;6.50;3.50;;;-0.80;99.90;;;;;;5131281;28;20823;-78
2023/02/09 08:32:41;;;;;;;6.10;2.97;;;-0.70;99.90;;;;;;5134267;27;20774;-78
2023/02/09 08:35:07;;;;;;;4.63;3.00;;;-0.80;99.90;;;;;;5131897;28;20420;-78
2023/02/09 08:37:33;;;;;;;4.50;3.13;;;-0.50;99.90;;;;;;5132637;27;20245;-78
2023/02/09 08:39:58;;;;;;;4.93;3.30;;;-0.70;99.90;;;;;;5131182;28;20625;-77
2023/02/09 08:42:24;;;;;;;5.97;2.63;;;-0.40;99.90;;;;;;5131545;27;20183;-77
2023/02/09 08:44:50;;;;;;;4.93;3.60;;;-0.80;99.90;;;;;;5130144;28;20199;-77
2023/02/09 08:47:16;;;;;;;6.17;3.37;;;-0.90;99.90;;;;;;5130149;28;20600;-77
2023/02/09 08:49:41;;;;;;;4.53;3.27;;;-0.50;99.90;;;;;;5130202;28;20339;-77
2023/02/09 08:52:07;;;;;;;5.70;3.17;;;-0.40;99.90;;;;;;5131259;27;20706;-77
2023/02/09 08:54:33;;;;;;;6.10;3.60;;;-0.40;99.90;;;;;;5130138;28;20571;-77
2023/02/09 08:57:00;;;;;;;4.63;3.67;;;-0.40;99.90;;;;;;5132503;27;20205;-77
2023/02/09 08:59:26;;;;;;;5.20;3.60;;;-0.30;99.90;;;;;;5131252;27;20689;-78
2023/02/09 09:01:52;;;;;;;5.23;4.07;;;-0.50;99.90;;;;;;5136380;27;20173;-78
2023/02/09 09:04:20;;;;;;;4.07;3.57;;;0.00;99.90;;;;;;5132418;28;20261;-78
2023/02/09 09:06:46;;;;;;;4.43;3.20;;;0.20;99.90;;;;;;5134452;27;20173;-78
2023/02/09 09:09:12;;;;;;;7.00;3.33;;;0.60;99.90;;;;;;5138847;28;20216;-78
2023/02/09 09:11:37;;;;;;;6.03;3.90;;;0.70;99.90;;;;;;5133020;28;20179;-78
2023/02/09 09:14:03;;;;;;;7.47;3.80;;;1.20;99.90;;;;;;5134581;27;20250;-78
2023/02/09 09:16:29;;;;;;;5.90;3.73;;;1.80;99.90;;;;;;5134125;27;20266;-77
2023/02/09 09:18:55;;;;;;;7.70;3.87;;;2.50;99.90;;;;;;5131706;28;20197;-78
2023/02/09 09:21:20;;;;;;;6.77;3.73;;;2.50;98.90;;;;;;5132650;28;20179;-78
2023/02/09 09:23:47;;;;;;;13.57;4.50;;;2.40;98.40;;;;;;5133001;28;20194;-78
2023/02/09 09:26:14;;;;;;;9.67;3.70;;;2.50;99.30;;;;;;5135159;27;20541;-78
2023/02/09 09:28:39;;;;;;;8.10;4.37;;;2.90;99.30;;;;;;5124233;28;20633;-78
2023/02/09 09:31:11;;;;;;;8.40;3.50;;;2.60;96.80;;;;;;5123277;28;20637;-78
2023/02/09 09:33:37;;;;;;;9.17;3.53;;;2.70;97.40;;;;;;5123170;28;20629;-78
2023/02/09 09:36:05;;;;;;;6.53;4.33;;;3.10;97.50;;;;;;5123623;28;20563;-79
2023/02/09 09:38:33;;;;;;;7.13;4.40;;;3.30;97.00;;;;;;5122367;28;20722;-79
2023/02/09 09:40:58;;;;;;;13.67;4.80;;;3.50;95.30;;;;;;5123218;28;20248;-79
2023/02/09 09:43:37;;;;;;;11.83;3.97;;;3.60;96.60;;;;;;5123448;28;20195;-78
2023/02/09 09:46:05;;;;;;;11.13;5.17;;;3.30;94.70;;;;;;5122038;28;20184;-79
2023/02/09 09:48:53;;;;;;;9.23;4.17;;;3.20;96.00;;;;;;5122797;28;20180;-79
2023/02/09 09:51:37;;;;;;;8.07;4.30;;;3.60;97.10;;;;;;5122417;28;20185;-79
2023/02/09 09:54:10;;;;;;;9.40;4.37;;;4.10;94.50;;;;;;5123852;28;20201;-79
2023/02/09 09:56:39;;;;;;;10.77;4.33;;;4.50;96.40;;;;;;5123412;28;20645;-79
2023/02/09 09:59:15;;;;;;;9.30;5.03;;;4.90;94.70;;;;;;5123781;28;20172;-79
2023/02/09 10:01:41;;;;;;;5.83;4.30;;;5.10;92.90;;;;;;5122160;28;20550;-80
2023/02/09 10:04:12;;;;;;;7.17;4.43;;;5.20;92.20;;;;;;5123193;28;20195;-79
2023/02/09 10:06:41;;;;;;;10.40;5.20;;;4.80;92.10;;;;;;5122702;28;20160;-79
2023/02/09 10:09:37;;;;;;;16.77;5.63;;;4.90;92.70;;;;;;5123655;28;20254;-80
2023/02/09 10:12:27;;;;;;;15.20;5.13;;;5.10;93.30;;;;;;5122816;28;20628;-79
2023/02/09 10:14:53;;;;;;;8.63;4.73;;;5.60;92.50;;;;;;5122029;28;20211;-80
2023/02/09 10:17:18;;;;;;;17.30;5.70;;;5.50;91.90;;;;;;5121715;28;20207;-79
2023/02/09 10:20:00;;;;;;;9.50;5.30;;;5.50;91.90;;;;;;5121267;28;20171;-79
2023/02/09 10:22:25;;;;;;;14.37;7.23;;;5.50;91.70;;;;;;5121563;28;20222;-79
2023/02/09 10:24:51;;;;;;;18.27;5.97;;;5.50;90.70;;;;;;5121729;28;20643;-80
2023/02/09 10:27:20;;;;;;;16.30;7.50;;;5.40;91.30;;;;;;5121642;28;20524;-80
2023/02/09 10:29:46;;;;;;;17.90;6.60;;;5.60;91.10;;;;;;5120829;28;20175;-79
2023/02/09 10:32:27;;;;;;;13.13;6.07;;;5.60;91.10;;;;;;5122711;28;20251;-79
2023/02/09 10:34:55;;;;;;;8.97;5.80;;;6.00;91.30;;;;;;5121185;28;20543;-80
2023/02/09 10:37:37;;;;;;;12.63;6.50;;;6.20;90.60;;;;;;5121056;28;20229;-80
2023/02/09 10:40:26;;;;;;;10.83;6.20;;;6.30;89.90;;;;;;5120969;28;20262;-80
2023/02/09 10:43:02;;;;;;;12.00;7.40;;;6.50;89.80;;;;;;5123437;28;20152;-80
2023/02/09 10:45:40;;;;;;;10.17;6.60;;;6.60;90.30;;;;;;5124405;28;20174;-80
2023/02/09 10:48:12;;;;;;;8.57;6.50;;;6.50;88.80;;;;;;5125316;28;20163;-80
2023/02/09 10:50:58;;;;;;;11.03;7.27;;;6.50;89.10;;;;;;5121840;28;20251;-80
2023/02/09 10:53:54;;;;;;;9.47;6.97;;;6.60;90.80;;;;;;5120967;28;20349;-80
2023/02/09 10:56:24;;;;;;;11.13;8.20;;;6.70;89.60;;;;;;5120547;28;20285;-80
2023/02/09 10:59:02;;;;;;;9.60;7.50;;;7.00;90.20;;;;;;5122412;28;20254;-80
2023/02/09 11:01:33;;;;;;;16.23;9.87;;;7.10;88.10;;;;;;5119933;28;20175;-81
2023/02/09 11:04:17;;;;;;;11.30;9.10;;;7.10;89.10;;;;;;5121658;28;20195;-79
2023/02/09 11:06:55;;;;;;;20.40;13.80;;;6.90;87.70;;;;;;5120479;28;20201;-80
2023/02/09 11:09:28;;;;;;;22.23;15.13;;;7.20;87.70;;;;;;5121399;28;20230;-80
2023/02/09 11:11:54;;;;;;;12.07;9.13;;;7.30;89.60;;;;;;5119360;28;20170;-80
2023/02/09 11:14:20;;;;;;;11.73;9.40;;;7.20;86.60;;;;;;5120868;28;20195;-80
2023/02/09 11:16:54;;;;;;;11.17;8.77;;;7.10;86.50;;;;;;5119528;28;20203;-80
2023/02/09 11:19:41;;;;;;;11.33;9.07;;;7.10;90.40;;;;;;5120379;28;20219;-79
2023/02/09 11:22:25;;;;;;;15.33;10.90;;;7.10;85.80;;;;;;5116581;28;20164;-79
2023/02/09 11:25:22;;;;;;;10.00;8.37;;;7.10;87.90;;;;;;5118115;28;20241;-79
2023/02/09 11:28:11;;;;;;;11.27;8.80;;;6.90;87.20;;;;;;5116824;28;20167;-79
2023/02/09 11:30:58;;;;;;;11.37;8.80;;;7.60;89.20;;;;;;5116478;28;20533;-79
2023/02/09 11:33:29;;;;;;;11.83;9.73;;;8.00;86.40;;;;;;5115319;28;20219;-79
2023/02/09 11:36:13;;;;;;;10.57;8.37;;;7.70;84.70;;;;;;5114796;28;20199;-80
2023/02/09 11:38:57;;;;;;;11.47;8.90;;;7.40;86.80;;;;;;5117008;28;20239;-81
2023/02/09 11:44:32;;;;;;;13.27;8.47;;;7.40;85.00;;;;;;5121952;28;20675;-80
2023/02/09 11:47:13;;;;;;;11.20;8.67;;;7.00;84.90;;;;;;5121634;28;20580;-79
2023/02/09 11:49:52;;;;;;;10.73;7.90;;;6.90;86.30;;;;;;5120989;28;20273;-80
2023/02/09 11:52:27;;;;;;;10.37;7.73;;;7.00;84.80;;;;;;5123013;28;20165;-81
2023/02/09 11:54:58;;;;;;;12.10;8.13;;;7.00;88.70;;;;;;5124700;28;20200;-80
2023/02/09 11:57:48;;;;;;;10.97;7.90;;;7.40;87.10;;;;;;5123135;28;20728;-80
2023/02/09 12:00:23;;;;;;;11.97;8.80;;;8.00;83.30;;;;;;5122598;28;20193;-81
2023/02/09 12:02:59;;;;;;;8.90;7.50;;;8.30;82.10;;;;;;5122481;28;20616;-80
2023/02/09 12:05:25;;;;;;;15.73;8.27;;;8.00;80.40;;;;;;5123446;28;20168;-80
2023/02/09 12:08:06;;;;;;;11.60;8.00;;;8.30;81.90;;;;;;5124558;28;20183;-81
2023/02/09 12:10:38;;;;;;;15.13;7.97;;;8.30;80.80;;;;;;5125125;28;20174;-81
2023/02/09 12:13:30;;;;;;;10.50;7.07;;;8.30;79.40;;;;;;5122816;28;20188;-80
2023/02/09 12:16:01;;;;;;;11.70;7.53;;;8.50;82.00;;;;;;5122657;28;20335;-80
2023/02/09 12:18:31;;;;;;;10.93;8.23;;;8.90;78.00;;;;;;5123419;28;20178;-81
2023/02/09 12:21:03;;;;;;;12.47;7.17;;;8.70;78.70;;;;;;5124720;28;20158;-80
2023/02/09 12:23:29;;;;;;;10.73;7.87;;;9.00;78.00;;;;;;5121178;28;20666;-80
2023/02/09 12:26:00;;;;;;;10.60;6.73;;;8.60;76.60;;;;;;5127186;28;20177;-80
2023/02/09 12:28:29;;;;;;;10.87;6.80;;;8.80;77.80;;;;;;5129809;28;20208;-79
2023/02/09 12:31:00;;;;;;;11.60;7.30;;;8.80;77.60;;;;;;5128233;28;20681;-79
2023/02/09 12:33:25;;;;;;;12.13;7.27;;;8.60;76.20;;;;;;5120762;28;20204;-79
2023/02/09 12:36:11;;;;;;;11.07;6.53;;;9.30;77.90;;;;;;5119313;28;20206;-79
2023/02/09 12:38:49;;;;;;;8.40;6.30;;;9.50;74.20;;;;;;5120279;28;20264;-80
2023/02/09 12:41:29;;;;;;;9.80;6.87;;;9.90;75.30;;;;;;5118268;28;20173;-78
2023/02/09 12:44:24;;;;;;;10.40;7.57;;;10.00;71.10;;;;;;5121043;28;20241;-80
2023/02/09 12:46:53;;;;;;;14.57;8.77;;;10.40;70.10;;;;;;5122067;28;20267;-80
2023/02/09 12:49:24;;;;;;;25.87;14.93;;;10.60;70.10;;;;;;5120447;28;20181;-82
2023/02/09 12:51:50;;;;;;;21.30;14.13;;;10.50;65.50;;;;;;5122842;28;20163;-81
2023/02/09 12:54:52;;;;;;;10.13;6.93;;;10.40;66.90;;;;;;5119588;28;20198;-86
2023/02/09 12:57:18;;;;;;;10.13;7.17;;;10.10;66.90;;;;;;5118318;28;20198;-81
2023/02/09 12:59:54;;;;;;;11.00;8.27;;;10.30;66.80;;;;;;5118091;28;20168;-81
2023/02/09 13:02:28;;;;;;;8.30;7.03;;;10.20;65.90;;;;;;5117198;28;20225;-80
2023/02/09 13:05:18;;;;;;;10.20;7.00;;;10.30;64.60;;;;;;5120835;28;20201;-80
2023/02/09 13:08:14;;;;;;;10.90;7.17;;;10.30;64.30;;;;;;5120726;28;20242;-80
2023/02/09 13:11:17;;;;;;;8.73;6.70;;;10.50;65.90;;;;;;5120968;28;20185;-80
2023/02/09 13:14:02;;;;;;;9.80;7.60;;;10.50;64.60;;;;;;5121458;28;20195;-81
2023/02/09 13:16:33;;;;;;;9.00;7.07;;;10.50;65.80;;;;;;5121828;28;20210;-81
2023/02/09 13:19:16;;;;;;;12.10;6.50;;;10.40;65.20;;;;;;5120656;28;20180;-81
2023/02/09 13:22:18;;;;;;;11.23;8.07;;;10.10;63.70;;;;;;5121343;28;20255;-81
2023/02/09 13:24:51;;;;;;;14.10;9.13;;;10.20;65.20;;;;;;5121175;28;20660;-80
2023/02/09 13:27:21;;;;;;;13.83;9.40;;;10.30;64.00;;;;;;5121962;28;20174;-80
2023/02/09 13:29:53;;;;;;;11.70;8.13;;;10.40;63.50;;;;;;5120252;28;20651;-80
2023/02/09 13:32:32;;;;;;;10.53;8.67;;;10.70;63.10;;;;;;5119562;28;20283;-80
2023/02/09 13:35:13;;;;;;;11.97;8.10;;;10.70;62.70;;;;;;5118098;28;20205;-80
2023/02/09 13:37:59;;;;;;;15.53;9.97;;;10.80;62.60;;;;;;5118557;28;20200;-80
2023/02/09 13:40:31;;;;;;;9.80;7.00;;;10.40;63.50;;;;;;5119854;28;20306;-80
2023/02/09 13:43:09;;;;;;;11.00;7.83;;;10.00;63.90;;;;;;5119655;28;20177;-80
2023/02/09 13:45:44;;;;;;;12.53;7.77;;;9.40;65.40;;;;;;5117865;28;20185;-81
2023/02/09 13:48:45;;;;;;;13.20;6.87;;;7.50;68.30;;;;;;5119786;28;20250;-80
2023/02/09 13:51:18;;;;;;;9.20;6.83;;;6.50;73.70;;;;;;5117147;28;20182;-81
2023/02/09 13:54:01;;;;;;;12.67;7.30;;;6.10;75.30;;;;;;5118048;28;20553;-80
2023/02/09 13:56:29;;;;;;;10.97;6.87;;;6.20;76.20;;;;;;5119073;28;20203;-80
2023/02/09 13:58:55;;;;;;;12.77;8.47;;;7.50;73.30;;;;;;5119269;28;20182;-80
2023/02/09 14:01:31;;;;;;;11.20;7.17;;;8.00;71.40;;;;;;5117027;28;20175;-80
2023/02/09 14:04:05;;;;;;;12.67;8.03;;;8.80;70.10;;;;;;5116557;28;20228;-80
2023/02/09 14:06:49;;;;;;;10.77;7.63;;;9.30;69.20;;;;;;5118934;28;20164;-80
2023/02/09 14:09:23;;;;;;;11.37;7.30;;;9.00;68.10;;;;;;5116834;28;20248;-80
2023/02/09 14:11:53;;;;;;;8.80;6.23;;;7.70;69.30;;;;;;5115875;28;20229;-80
2023/02/09 14:14:27;;;;;;;12.17;7.80;;;6.50;73.30;;;;;;5116634;28;20289;-80
2023/02/09 14:17:21;;;;;;;11.90;7.80;;;5.90;76.30;;;;;;5116044;28;20219;-80
2023/02/09 14:19:47;;;;;;;11.53;7.80;;;5.60;79.10;;;;;;5116700;28;20164;-80
2023/02/09 14:22:53;;;;;;;12.40;7.10;;;5.10;79.50;;;;;;5119400;28;20192;-79
2023/02/09 14:25:24;;;;;;;9.87;7.03;;;4.90;80.70;;;;;;5088043;28;20190;-80
2023/02/09 14:27:50;;;;;;;13.53;7.67;;;4.70;82.10;;;;;;5118823;28;20272;-80
2023/02/09 14:30:20;;;;;;;11.60;7.70;;;4.60;83.70;;;;;;5119950;28;20180;-80
2023/02/09 14:32:54;;;;;;;13.20;8.77;;;4.50;84.10;;;;;;5119529;28;20211;-80
2023/02/09 14:35:40;;;;;;;13.03;8.70;;;4.50;84.30;;;;;;5118512;28;20200;-80
2023/02/09 14:38:40;;;;;;;12.57;8.70;;;4.50;85.00;;;;;;5120958;28;20243;-80
2023/02/09 14:41:34;;;;;;;13.57;8.13;;;4.40;85.30;;;;;;5119151;28;20203;-79
2023/02/09 14:44:05;;;;;;;13.63;8.80;;;4.40;85.70;;;;;;5119213;28;20216;-79
2023/02/09 14:46:51;;;;;;;13.53;6.77;;;4.30;85.60;;;;;;5122360;28;20182;-79
2023/02/09 14:49:18;;;;;;;11.30;7.03;;;4.30;85.80;;;;;;5122686;28;20178;-82
2023/02/09 14:51:45;;;;;;;9.63;7.13;;;4.20;86.40;;;;;;5122318;28;20173;-81
2023/02/09 14:54:24;;;;;;;10.03;6.00;;;4.20;87.60;;;;;;5123220;28;20200;-80
2023/02/09 14:56:52;;;;;;;12.07;7.93;;;4.00;86.70;;;;;;5122924;28;20205;-80
2023/02/09 14:59:18;;;;;;;9.37;5.87;;;4.00;86.80;;;;;;5121860;28;20181;-79
2023/02/09 15:01:46;;;;;;;10.67;6.77;;;3.90;88.00;;;;;;5121887;28;20179;-80
2023/02/09 15:04:12;;;;;;;8.97;6.67;;;;;;;;;;5122930;28;20201;-80
2023/02/09 15:06:40;;;;;;;10.33;6.30;;;3.80;88.20;;;;;;5123093;28;20202;-80
2023/02/09 15:09:06;;;;;;;12.23;6.93;;;3.80;87.90;;;;;;5123142;28;20174;-80
2023/02/09 15:14:19;;;;;;;11.40;7.03;;;3.80;88.70;;;;;;5123431;28;20365;-80
2023/02/09 15:16:44;;;;;;;18.60;11.43;;;3.70;88.40;;;;;;5122342;28;20209;-80
2023/02/09 15:19:13;;;;;;;18.63;10.03;;;3.60;89.80;;;;;;5121601;28;20182;-80
2023/02/09 15:21:39;;;;;;;16.87;9.37;;;;;;;;;;5123030;28;20527;-80
2023/02/09 15:24:05;;;;;;;19.77;8.40;;;;;;;;;;5122091;28;20211;-81
2023/02/09 15:26:35;;;;;;;16.60;8.07;;;3.60;90.60;;;;;;5123324;28;20467;-80
2023/02/09 15:29:01;;;;;;;11.73;6.40;;;;;;;;;;5122472;28;20508;-81
2023/02/09 15:31:27;;;;;;;12.13;7.80;;;;;;;;;;5119209;28;20822;-80
2023/02/09 15:33:54;;;;;;;18.23;9.97;;;3.40;90.60;;;;;;5116274;28;20780;-80
2023/02/09 15:36:21;;;;;;;11.03;6.80;;;3.30;91.20;;;;;;5116308;28;20453;-80
2023/02/09 15:38:47;;;;;;;13.87;8.33;;;;;;;;;;5117627;28;20412;-80
